createdAt,value
2023-03-14T00:00:55.105Z,98549.81
2023-03-14T00:03:21.880Z,98559.63
2023-03-14T00:05:48.844Z,98549.59
2023-03-14T00:08:15.503Z,98540.94
2023-03-14T00:10:42.673Z,98555.22
2023-03-14T00:13:10.614Z,98566.22
2023-03-14T00:15:37.260Z,98574.59
2023-03-14T00:18:04.062Z,98576.38
2023-03-14T00:20:33.032Z,98572.09
2023-03-14T00:22:59.626Z,98556.09
2023-03-14T00:25:26.219Z,98565.81
2023-03-14T00:27:52.907Z,98586.13
2023-03-14T00:30:21.058Z,98582.72
2023-03-14T00:32:47.742Z,98542.38
2023-03-14T00:35:14.631Z,98585.78
2023-03-14T00:37:41.293Z,98563.72
2023-03-14T00:40:09.656Z,98561.94
2023-03-14T00:42:36.433Z,98556.72
2023-03-14T00:45:03.285Z,98555.53
2023-03-14T00:47:31.308Z,98554.94
2023-03-14T00:49:57.859Z,98555.19
2023-03-14T00:52:24.466Z,98562.94
2023-03-14T00:54:51.025Z,98561.94
2023-03-14T00:57:17.640Z,98504.63
2023-03-14T00:59:44.174Z,98535.44
2023-03-14T01:02:10.891Z,98560.63
2023-03-14T01:04:38.991Z,98560.25
2023-03-14T01:07:05.836Z,98573.44
2023-03-14T01:09:32.674Z,98567.59
2023-03-14T01:11:59.276Z,98567.34
2023-03-14T01:14:25.867Z,98573.13
2023-03-14T01:16:52.498Z,98544.13
2023-03-14T01:19:20.264Z,98553.50
2023-03-14T01:21:48.277Z,98567.00
2023-03-14T01:24:14.856Z,98553.16
2023-03-14T01:26:41.470Z,98546.81
2023-03-14T01:29:09.132Z,98547.25
2023-03-14T01:31:38.688Z,98533.00
2023-03-14T01:34:05.524Z,98509.63
2023-03-14T01:36:32.757Z,98540.50
2023-03-14T01:39:02.869Z,98548.22
2023-03-14T01:41:29.620Z,98540.50
2023-03-14T01:43:58.594Z,98534.09
2023-03-14T01:46:34.884Z,98547.09
2023-03-14T01:49:21.864Z,98538.94
2023-03-14T01:52:01.992Z,98522.41
2023-03-14T01:54:35.467Z,98527.16
2023-03-14T01:57:09.515Z,98528.75
2023-03-14T01:59:38.133Z,98526.47
2023-03-14T02:02:07.713Z,98521.78
2023-03-14T02:04:36.504Z,98545.94
2023-03-14T02:07:11.019Z,98537.28
2023-03-14T02:09:45.578Z,98531.09
2023-03-14T02:12:21.321Z,98531.44
2023-03-14T02:14:52.951Z,98526.72
2023-03-14T02:17:31.119Z,98523.84
2023-03-14T02:20:20.293Z,98516.31
2023-03-14T02:22:54.025Z,98527.00
2023-03-14T02:25:30.205Z,98493.41
2023-03-14T02:27:58.788Z,98532.78
2023-03-14T02:30:28.554Z,98536.78
2023-03-14T02:32:59.274Z,98532.06
2023-03-14T02:35:30.577Z,98513.09
2023-03-14T02:38:03.639Z,98526.22
2023-03-14T02:40:34.602Z,98462.66
2023-03-14T02:43:02.872Z,98506.59
2023-03-14T02:45:41.643Z,98514.41
2023-03-14T02:48:15.320Z,98514.78
2023-03-14T02:50:43.866Z,98503.22
2023-03-14T02:53:12.996Z,98500.22
2023-03-14T02:55:39.783Z,98496.75
2023-03-14T02:58:13.011Z,98483.84
2023-03-14T03:00:40.558Z,98458.34
2023-03-14T03:03:09.330Z,98472.78
2023-03-14T03:05:36.355Z,98455.75
2023-03-14T03:08:03.385Z,98480.28
2023-03-14T03:10:31.466Z,98483.97
2023-03-14T03:12:58.559Z,98476.28
2023-03-14T03:15:29.004Z,98479.06
2023-03-14T03:17:56.702Z,98443.09
2023-03-14T03:20:23.299Z,98471.91
2023-03-14T03:22:49.903Z,98465.06
2023-03-14T03:25:17.522Z,98465.25
2023-03-14T03:27:46.404Z,98470.34
2023-03-14T03:30:17.457Z,98492.44
2023-03-14T03:32:45.586Z,98462.28
2023-03-14T03:35:13.039Z,98478.84
2023-03-14T03:37:40.219Z,98360.34
2023-03-14T03:40:08.911Z,98489.13
2023-03-14T03:42:37.303Z,98485.75
2023-03-14T03:45:07.844Z,98475.81
2023-03-14T03:47:39.102Z,98454.25
2023-03-14T03:50:09.185Z,98452.69
2023-03-14T03:52:35.839Z,98445.41
2023-03-14T03:55:02.514Z,98447.41
2023-03-14T03:57:29.417Z,98405.91
2023-03-14T03:59:57.116Z,98423.78
2023-03-14T04:02:23.752Z,98431.44
2023-03-14T04:04:51.367Z,98435.31
2023-03-14T04:07:20.094Z,98424.28
2023-03-14T04:09:47.113Z,98411.00
2023-03-14T04:12:31.988Z,98441.81
2023-03-14T04:15:08.142Z,98409.63
2023-03-14T04:17:36.491Z,98448.22
2023-03-14T04:20:04.182Z,98441.13
2023-03-14T04:22:37.164Z,98435.00
2023-03-14T04:25:04.801Z,98424.53
2023-03-14T04:27:35.149Z,98443.25
2023-03-14T04:30:04.622Z,98425.72
2023-03-14T04:32:53.596Z,98428.47
2023-03-14T04:35:23.260Z,98412.56
2023-03-14T04:37:55.212Z,98424.63
2023-03-14T04:40:23.221Z,98433.19
2023-03-14T04:42:53.225Z,98400.41
2023-03-14T04:45:20.840Z,98420.59
2023-03-14T04:47:47.549Z,98410.63
2023-03-14T04:50:18.225Z,98412.72
2023-03-14T04:52:45.722Z,98399.34
2023-03-14T04:55:13.769Z,98370.47
2023-03-14T04:57:40.618Z,98402.75
2023-03-14T05:00:11.555Z,98393.59
2023-03-14T05:02:53.621Z,98394.09
2023-03-14T05:05:45.823Z,98393.34
2023-03-14T05:08:20.851Z,98387.19
2023-03-14T05:11:06.519Z,98352.28
2023-03-14T05:13:52.413Z,98389.41
2023-03-14T05:16:54.670Z,98380.34
2023-03-14T05:19:43.899Z,98388.16
2023-03-14T05:22:26.718Z,98352.41
2023-03-14T05:25:11.330Z,98377.28
2023-03-14T05:27:39.288Z,98378.34
2023-03-14T05:30:35.030Z,98314.06
2023-03-14T05:33:20.278Z,98370.13
2023-03-14T05:36:08.322Z,98374.19
2023-03-14T05:38:53.218Z,98365.47
2023-03-14T05:41:49.291Z,98352.19
2023-03-14T05:44:43.528Z,98360.75
2023-03-14T05:47:30.092Z,98369.09
2023-03-14T05:50:11.385Z,98368.09
2023-03-14T05:52:55.089Z,98373.38
2023-03-14T05:55:55.908Z,98368.50
2023-03-14T05:58:34.638Z,98371.72
2023-03-14T06:01:12.418Z,98374.38
2023-03-14T06:03:58.647Z,98376.41
2023-03-14T06:06:25.307Z,98343.59
2023-03-14T06:08:52.042Z,98362.22
2023-03-14T06:11:18.787Z,98351.03
2023-03-14T06:13:46.571Z,98361.25
2023-03-14T06:16:15.760Z,98327.50
2023-03-14T06:18:42.967Z,98361.63
2023-03-14T06:21:10.991Z,98365.84
2023-03-14T06:23:38.077Z,98354.97
2023-03-14T06:26:06.021Z,98359.75
2023-03-14T06:28:32.885Z,98336.59
2023-03-14T06:31:01.799Z,98353.22
2023-03-14T06:33:35.642Z,98352.84
2023-03-14T06:36:03.837Z,98363.78
2023-03-14T06:38:30.936Z,98349.56
2023-03-14T06:41:04.582Z,98338.41
2023-03-14T06:43:36.394Z,98341.06
2023-03-14T06:46:04.390Z,98341.28
2023-03-14T06:48:32.876Z,98352.66
2023-03-14T06:51:00.864Z,98348.75
2023-03-14T06:53:27.576Z,98352.66
2023-03-14T06:55:54.749Z,98345.75
2023-03-14T06:58:22.315Z,98358.19
2023-03-14T07:00:49.816Z,98357.78
2023-03-14T07:03:22.360Z,98359.25
2023-03-14T07:05:50.880Z,98358.69
2023-03-14T07:08:18.993Z,98360.09
2023-03-14T07:10:45.737Z,98369.81
2023-03-14T07:13:12.616Z,98361.44
2023-03-14T07:15:50.359Z,98372.53
2023-03-14T07:18:17.109Z,98343.66
2023-03-14T07:20:46.062Z,98383.56
2023-03-14T07:23:14.170Z,98348.13
2023-03-14T07:25:48.203Z,98373.38
2023-03-14T07:28:16.702Z,98385.88
2023-03-14T07:30:46.983Z,98384.91
2023-03-14T07:33:18.393Z,98390.66
2023-03-14T07:35:45.170Z,98385.38
2023-03-14T07:38:12.135Z,98388.00
2023-03-14T07:40:51.762Z,98382.16
2023-03-14T07:43:18.396Z,98373.00
2023-03-14T07:45:51.225Z,98388.00
2023-03-14T07:48:18.313Z,98391.66
2023-03-14T07:50:45.207Z,98379.31
2023-03-14T07:53:11.838Z,98340.78
2023-03-14T07:55:41.348Z,98367.59
2023-03-14T07:58:09.311Z,98382.72
2023-03-14T08:00:35.854Z,98385.75
2023-03-14T08:03:02.597Z,98392.31
2023-03-14T08:05:29.402Z,98375.22
2023-03-14T08:07:56.327Z,98387.44
2023-03-14T08:10:23.191Z,98388.69
2023-03-14T08:12:49.890Z,98393.44
2023-03-14T08:15:18.074Z,98394.31
2023-03-14T08:17:44.755Z,98335.56
2023-03-14T08:20:12.304Z,98387.66
2023-03-14T08:22:38.958Z,98393.75
2023-03-14T08:25:06.482Z,98389.72
2023-03-14T08:27:33.124Z,98391.16
2023-03-14T08:29:59.971Z,98395.69
2023-03-14T08:32:28.154Z,98381.84
2023-03-14T08:34:54.973Z,98400.38
2023-03-14T08:37:26.705Z,98390.22
2023-03-14T08:39:54.798Z,98396.16
2023-03-14T08:42:21.639Z,98397.59
2023-03-14T08:44:48.247Z,98398.00
2023-03-14T08:47:14.861Z,98398.19
2023-03-14T08:49:42.887Z,98399.81
2023-03-14T08:52:09.424Z,98401.66
2023-03-14T08:54:36.343Z,98381.28
2023-03-14T08:57:02.954Z,98393.94
2023-03-14T08:59:29.559Z,98393.72
2023-03-14T09:01:56.120Z,98405.34
2023-03-14T09:04:22.828Z,98393.91
2023-03-14T09:06:50.874Z,98407.16
2023-03-14T09:09:17.549Z,98390.06
2023-03-14T09:11:44.118Z,98397.59
2023-03-14T09:14:11.055Z,98412.47
2023-03-14T09:16:37.737Z,98405.53
2023-03-14T09:19:04.512Z,98419.00
2023-03-14T09:21:31.026Z,98383.31
2023-03-14T09:23:58.916Z,98428.16
2023-03-14T09:26:25.454Z,98433.25
2023-03-14T09:28:52.045Z,98417.56
2023-03-14T09:31:18.673Z,98453.97
2023-03-14T09:33:45.334Z,98473.94
2023-03-14T09:36:11.993Z,98477.72
2023-03-14T09:38:38.822Z,98477.03
2023-03-14T09:41:15.462Z,98470.72
2023-03-14T09:43:43.813Z,98481.94
2023-03-14T09:46:11.568Z,98370.16
2023-03-14T09:48:38.236Z,98487.28
2023-03-14T09:51:12.264Z,98487.09
2023-03-14T09:53:41.896Z,98484.41
2023-03-14T09:56:15.191Z,98496.72
2023-03-14T09:58:45.144Z,98498.81
2023-03-14T10:01:17.615Z,98500.38
2023-03-14T10:03:46.234Z,98502.19
2023-03-14T10:06:13.405Z,98509.06
2023-03-14T10:08:41.101Z,98511.03
2023-03-14T10:11:10.920Z,98541.75
2023-03-14T10:13:48.998Z,98626.63
2023-03-14T10:16:15.688Z,98650.03
2023-03-14T10:18:46.110Z,98658.50
2023-03-14T10:21:21.807Z,98658.69
2023-03-14T10:23:49.846Z,98690.44
2023-03-14T10:26:18.285Z,98711.56
2023-03-14T10:28:48.786Z,98706.94
2023-03-14T10:31:16.621Z,98721.59
2023-03-14T10:33:43.299Z,98739.47
2023-03-14T10:36:19.850Z,98739.66
2023-03-14T10:38:46.840Z,98755.28
2023-03-14T10:41:17.846Z,98772.28
2023-03-14T10:43:45.993Z,98774.72
2023-03-14T10:46:17.549Z,98767.56
2023-03-14T10:49:06.533Z,98789.91
2023-03-14T10:51:33.191Z,98796.00
2023-03-14T10:54:02.290Z,98801.63
2023-03-14T10:56:35.468Z,98807.19
2023-03-14T10:59:05.174Z,98834.00
2023-03-14T11:01:40.422Z,98823.00
2023-03-14T11:04:22.463Z,98803.78
2023-03-14T11:06:51.500Z,98827.31
2023-03-14T11:09:24.914Z,98775.22
2023-03-14T11:11:51.494Z,98832.41
2023-03-14T11:14:27.692Z,98845.91
2023-03-14T11:17:00.722Z,98863.16
2023-03-14T11:19:47.623Z,98861.50
2023-03-14T11:22:29.189Z,98860.22
2023-03-14T11:25:10.630Z,98887.66
2023-03-14T11:27:43.037Z,98877.47
2023-03-14T11:30:19.585Z,98892.25
2023-03-14T11:32:51.038Z,98892.75
2023-03-14T11:35:23.656Z,98902.75
2023-03-14T11:37:55.694Z,98892.25
2023-03-14T11:40:24.568Z,98912.47
2023-03-14T11:43:00.115Z,98907.72
2023-03-14T11:45:35.231Z,98913.16
2023-03-14T11:48:26.316Z,98896.69
2023-03-14T11:50:55.924Z,98925.63
2023-03-14T11:53:35.712Z,98924.34
2023-03-14T11:56:02.809Z,98906.56
2023-03-14T11:58:34.673Z,98923.66
2023-03-14T12:01:06.595Z,98958.38
2023-03-14T12:03:40.475Z,98951.94
2023-03-14T12:06:19.784Z,98958.03
2023-03-14T12:08:50.425Z,98965.59
2023-03-14T12:11:22.164Z,98950.44
2023-03-14T12:13:51.510Z,99017.28
2023-03-14T12:16:33.237Z,99046.59
2023-03-14T12:19:15.973Z,99052.97
2023-03-14T12:21:50.208Z,99068.50
2023-03-14T12:24:19.858Z,99071.00
2023-03-14T12:26:54.594Z,99058.66
2023-03-14T12:29:21.218Z,99067.41
2023-03-14T12:31:50.208Z,99056.25
2023-03-14T12:34:28.885Z,99079.78
2023-03-14T12:37:02.475Z,99102.34
2023-03-14T12:39:47.850Z,99108.72
2023-03-14T12:42:19.174Z,99105.78
2023-03-14T12:44:48.716Z,99118.88
2023-03-14T12:47:49.531Z,99138.38
2023-03-14T12:50:21.500Z,99162.03
2023-03-14T12:53:13.502Z,99157.44
2023-03-14T12:55:49.338Z,99180.69
2023-03-14T12:58:21.294Z,99155.97
2023-03-14T13:00:55.396Z,99174.19
2023-03-14T13:03:26.318Z,99199.78
2023-03-14T13:05:54.241Z,99201.88
2023-03-14T13:08:35.409Z,99207.06
2023-03-14T13:11:03.609Z,99213.34
2023-03-14T13:13:30.525Z,99212.06
2023-03-14T13:15:58.484Z,99224.44
2023-03-14T13:18:30.729Z,99229.72
2023-03-14T13:21:02.343Z,99220.56
2023-03-14T13:23:32.354Z,99240.00
2023-03-14T13:26:00.557Z,99230.34
2023-03-14T13:28:28.231Z,99254.28
2023-03-14T13:30:57.236Z,99250.78
2023-03-14T13:33:25.838Z,99269.91
2023-03-14T13:35:57.345Z,99264.94
2023-03-14T13:38:27.337Z,99284.69
2023-03-14T13:40:56.538Z,99265.19
2023-03-14T13:43:28.248Z,99275.84
2023-03-14T13:45:57.520Z,99294.25
2023-03-14T13:48:29.558Z,99311.91
2023-03-14T13:51:00.380Z,99322.31
2023-03-14T13:53:27.010Z,99313.34
2023-03-14T13:55:55.308Z,99337.03
2023-03-14T13:58:25.207Z,99345.00
2023-03-14T14:00:58.081Z,99350.00
2023-03-14T14:03:24.890Z,99358.72
2023-03-14T14:05:56.149Z,99367.59
2023-03-14T14:08:22.991Z,99366.25
2023-03-14T14:10:50.197Z,99342.97
2023-03-14T14:13:22.014Z,99378.44
2023-03-14T14:15:52.430Z,99383.84
2023-03-14T14:18:23.294Z,99383.88
2023-03-14T14:20:50.930Z,99377.72
2023-03-14T14:23:21.447Z,99409.38
2023-03-14T14:25:50.588Z,99423.81
2023-03-14T14:28:23.986Z,99431.56
2023-03-14T14:31:01.680Z,99439.00
2023-03-14T14:33:28.437Z,99409.66
2023-03-14T14:35:58.331Z,99455.19
2023-03-14T14:38:27.094Z,99471.34
2023-03-14T14:41:00.976Z,99462.22
2023-03-14T14:43:31.361Z,99472.06
2023-03-14T14:45:58.471Z,99484.56
2023-03-14T14:48:27.157Z,99386.03
2023-03-14T14:50:59.631Z,99489.72
2023-03-14T14:53:31.101Z,99509.34
2023-03-14T14:56:00.535Z,99490.16
2023-03-14T14:58:34.020Z,99524.97
2023-03-14T15:01:06.393Z,99516.34
2023-03-14T15:03:35.392Z,99542.19
2023-03-14T15:06:02.393Z,99553.81
2023-03-14T15:08:31.038Z,99558.81
2023-03-14T15:10:58.514Z,99561.59
2023-03-14T15:13:25.278Z,99574.72
2023-03-14T15:15:52.529Z,99549.63
2023-03-14T15:18:19.514Z,99593.13
2023-03-14T15:20:46.331Z,99597.59
2023-03-14T15:23:14.764Z,99607.94
2023-03-14T15:25:55.037Z,99611.41
2023-03-14T15:28:24.621Z,99615.53
2023-03-14T15:30:53.245Z,99621.50
2023-03-14T15:33:20.744Z,99590.13
2023-03-14T15:35:48.064Z,99581.84
2023-03-14T15:38:18.027Z,99622.88
2023-03-14T15:40:45.929Z,99573.81
2023-03-14T15:43:12.804Z,99645.56
2023-03-14T15:45:39.517Z,99646.50
2023-03-14T15:48:06.411Z,99653.41
2023-03-14T15:50:33.399Z,99658.13
2023-03-14T15:53:00.055Z,99662.16
2023-03-14T15:55:26.747Z,99665.31
2023-03-14T15:57:55.209Z,99659.53
2023-03-14T16:00:22.581Z,99633.13
2023-03-14T16:02:49.528Z,99627.97
2023-03-14T16:05:17.094Z,99689.50
2023-03-14T16:07:43.705Z,99688.13
2023-03-14T16:10:12.663Z,99693.25
2023-03-14T16:12:39.579Z,99696.56
2023-03-14T16:15:09.847Z,99693.66
2023-03-14T16:17:37.194Z,99718.66
2023-03-14T16:20:04.600Z,99723.34
2023-03-14T16:22:31.290Z,99721.19
2023-03-14T16:24:57.897Z,99725.97
2023-03-14T16:27:24.543Z,99714.28
2023-03-14T16:29:51.198Z,99739.63
2023-03-14T16:32:19.212Z,99739.09
2023-03-14T16:34:45.892Z,99733.97
2023-03-14T16:37:12.525Z,99756.69
2023-03-14T16:42:25.827Z,99768.84
2023-03-14T16:44:52.417Z,99745.13
2023-03-14T16:47:20.391Z,99778.53
2023-03-14T16:49:46.963Z,99784.00
2023-03-14T16:52:13.606Z,99762.66
2023-03-14T16:54:40.122Z,99794.94
2023-03-14T16:57:06.845Z,99763.53
2023-03-14T16:59:33.570Z,99807.53
2023-03-14T17:02:00.144Z,99816.28
2023-03-14T17:04:28.450Z,99832.41
2023-03-14T17:06:55.155Z,99825.34
2023-03-14T17:09:21.697Z,99844.03
2023-03-14T17:11:48.334Z,99844.50
2023-03-14T17:14:14.870Z,99847.63
2023-03-14T17:16:41.530Z,99829.69
2023-03-14T17:19:08.192Z,99858.47
2023-03-14T17:21:36.212Z,99856.34
2023-03-14T17:24:02.874Z,99859.34
2023-03-14T17:26:29.554Z,99877.31
2023-03-14T17:28:56.087Z,99871.38
2023-03-14T17:31:22.831Z,99845.78
2023-03-14T17:33:49.847Z,99857.03
2023-03-14T17:36:16.508Z,99893.66
2023-03-14T17:38:44.656Z,99901.19
2023-03-14T17:41:13.024Z,99906.41
2023-03-14T17:43:41.830Z,99916.19
2023-03-14T17:46:10.554Z,99904.41
2023-03-14T17:48:37.153Z,99938.81
2023-03-14T17:51:04.190Z,99871.09
2023-03-14T17:53:31.039Z,99949.28
2023-03-14T17:55:59.029Z,99959.25
2023-03-14T17:58:25.843Z,99953.56
2023-03-14T18:00:52.532Z,99977.50
2023-03-14T18:03:19.128Z,99982.63
2023-03-14T18:05:45.975Z,99982.16
2023-03-14T18:08:14.659Z,99952.25
2023-03-14T18:10:41.424Z,99960.22
2023-03-14T18:13:09.329Z,99948.56
2023-03-14T18:15:35.967Z,99999.66
2023-03-14T18:18:02.976Z,100012.59
2023-03-14T18:20:30.379Z,100018.66
2023-03-14T18:22:56.924Z,100028.09
2023-03-14T18:25:23.617Z,100024.16
2023-03-14T18:27:50.211Z,100029.16
2023-03-14T18:30:18.544Z,100035.22
2023-03-14T18:32:45.123Z,100034.28
2023-03-14T18:35:11.774Z,100042.34
2023-03-14T18:37:38.298Z,100044.97
2023-03-14T18:40:05.826Z,100046.41
2023-03-14T18:42:32.419Z,100052.97
2023-03-14T18:44:59.158Z,100057.94
2023-03-14T18:47:28.145Z,100040.91
2023-03-14T18:49:54.880Z,100068.69
2023-03-14T18:52:21.434Z,100072.47
2023-03-14T18:54:48.041Z,100087.78
2023-03-14T18:57:14.660Z,100092.09
2023-03-14T18:59:41.446Z,100094.22
2023-03-14T19:02:09.362Z,100109.72
2023-03-14T19:04:37.411Z,100118.03
2023-03-14T19:07:04.060Z,100118.13
2023-03-14T19:09:30.696Z,100119.19
2023-03-14T19:11:57.268Z,100124.22
2023-03-14T19:14:23.918Z,100123.03
2023-03-14T19:16:50.587Z,100065.91
2023-03-14T19:19:17.293Z,100103.63
2023-03-14T19:21:45.180Z,100138.34
2023-03-14T19:24:17.493Z,100139.25
2023-03-14T19:26:44.158Z,100160.13
2023-03-14T19:29:10.703Z,100124.09
2023-03-14T19:31:37.867Z,100157.75
2023-03-14T19:34:04.538Z,100165.63
2023-03-14T19:36:33.302Z,100170.84
2023-03-14T19:39:02.522Z,100178.91
2023-03-14T19:41:30.358Z,100174.00
2023-03-14T19:43:57.208Z,100167.91
2023-03-14T19:46:24.306Z,100190.28
2023-03-14T19:48:51.104Z,100189.78
2023-03-14T19:51:17.739Z,100201.28
2023-03-14T19:53:44.431Z,100212.59
2023-03-14T19:56:12.414Z,100213.66
2023-03-14T19:58:40.425Z,100213.03
2023-03-14T20:01:07.907Z,100218.59
2023-03-14T20:03:35.210Z,100182.66
2023-03-14T20:06:04.504Z,100230.00
2023-03-14T20:08:31.090Z,100213.59
2023-03-14T20:10:57.741Z,100243.53
2023-03-14T20:13:25.682Z,100251.59
2023-03-14T20:15:52.322Z,100258.81
2023-03-14T20:18:19.029Z,100232.59
2023-03-14T20:20:45.974Z,100275.78
2023-03-14T20:23:13.815Z,100262.72
2023-03-14T20:25:52.236Z,100241.91
2023-03-14T20:28:18.853Z,100292.22
2023-03-14T20:30:46.827Z,100295.25
2023-03-14T20:33:13.542Z,100298.91
2023-03-14T20:35:40.098Z,100297.22
2023-03-14T20:38:06.725Z,100295.75
2023-03-14T20:40:33.531Z,100308.22
2023-03-14T20:43:00.278Z,100310.00
2023-03-14T20:45:26.866Z,100298.56
2023-03-14T20:47:54.896Z,100318.03
2023-03-14T20:50:21.518Z,100294.28
2023-03-14T20:52:48.236Z,100308.91
2023-03-14T20:55:14.809Z,100294.28
2023-03-14T20:57:41.454Z,100306.91
2023-03-14T21:00:09.075Z,100339.84
2023-03-14T21:02:35.712Z,100335.75
2023-03-14T21:05:04.657Z,100345.69
2023-03-14T21:07:32.100Z,100353.19
2023-03-14T21:09:58.811Z,100352.84
2023-03-14T21:12:25.767Z,100315.75
2023-03-14T21:14:52.279Z,100359.81
2023-03-14T21:17:18.901Z,100360.28
2023-03-14T21:19:45.458Z,100362.63
2023-03-14T21:22:13.420Z,100347.13
2023-03-14T21:24:39.948Z,100365.69
2023-03-14T21:27:07.092Z,100359.56
2023-03-14T21:29:33.702Z,100360.03
2023-03-14T21:32:00.470Z,100324.75
2023-03-14T21:34:27.358Z,100374.56
2023-03-14T21:36:54.375Z,100358.72
2023-03-14T21:39:23.048Z,100351.47
2023-03-14T21:41:49.914Z,100397.19
2023-03-14T21:44:16.753Z,100404.63
2023-03-14T21:46:43.419Z,100400.63
2023-03-14T21:49:09.996Z,100402.84
2023-03-14T21:51:36.657Z,100399.00
2023-03-14T21:54:03.233Z,100394.69
2023-03-14T21:56:31.194Z,100418.03
2023-03-14T21:58:57.756Z,100417.56
2023-03-14T22:01:24.425Z,100372.50
2023-03-14T22:03:51.210Z,100400.81
2023-03-14T22:06:17.842Z,100418.84
2023-03-14T22:08:44.384Z,100420.22
2023-03-14T22:11:11.045Z,100422.41
2023-03-14T22:13:39.038Z,100415.53
2023-03-14T22:16:06.984Z,100433.56
2023-03-14T22:18:34.163Z,100430.53
2023-03-14T22:21:00.846Z,100440.56
2023-03-14T22:23:27.448Z,100450.38
2023-03-14T22:25:54.304Z,100445.38
2023-03-14T22:28:20.956Z,100434.06
2023-03-14T22:30:51.779Z,100452.03
2023-03-14T22:33:19.325Z,100459.06
2023-03-14T22:35:47.874Z,100461.91
2023-03-14T22:38:14.598Z,100469.78
2023-03-14T22:40:41.213Z,100412.66
2023-03-14T22:43:07.906Z,100472.63
2023-03-14T22:45:34.785Z,100462.56
2023-03-14T22:48:02.973Z,100468.28
2023-03-14T22:50:29.822Z,100471.88
2023-03-14T22:52:57.333Z,100460.50
2023-03-14T22:55:24.069Z,100476.47
2023-03-14T22:57:52.053Z,100475.81
2023-03-14T23:00:19.493Z,100477.50
2023-03-14T23:02:46.137Z,100474.19
2023-03-14T23:05:14.362Z,100482.91
2023-03-14T23:07:41.302Z,100484.00
2023-03-14T23:10:09.082Z,100480.63
2023-03-14T23:12:35.679Z,100480.78
2023-03-14T23:15:02.396Z,100477.66
2023-03-14T23:17:29.165Z,100461.00
2023-03-14T23:19:55.837Z,100500.28
2023-03-14T23:22:23.852Z,100503.91
2023-03-14T23:24:50.466Z,100502.75
2023-03-14T23:27:17.340Z,100499.44
2023-03-14T23:29:45.785Z,100467.34
2023-03-14T23:32:12.750Z,100488.03
2023-03-14T23:34:39.366Z,100502.59
2023-03-14T23:37:06.085Z,100508.94
2023-03-14T23:39:34.103Z,100507.69
2023-03-14T23:42:00.708Z,100516.63
2023-03-14T23:44:27.392Z,100516.84
2023-03-14T23:46:54.116Z,100524.94
2023-03-14T23:49:20.656Z,100521.94
2023-03-14T23:51:47.414Z,100529.63
2023-03-14T23:54:14.282Z,100518.50
2023-03-14T23:56:42.238Z,100516.53
2023-03-14T23:59:08.895Z,100515.75
